CheckWX is a tool to help pilots better visualize weather data.  It is not intended as a substitute for an official pre-flight weather briefing.

03:59:30 UTC

RCTP METAR
Taiwan Taoyuan International Airport
Taipei, Taiwan
Current

30 mins ago

RCTP 020330Z 05007KT 9999 SCT015 BKN050 BKN120 20/18 Q1019 NOSIG RMK A3009
Observed
Apr-2 @ 03:30 UTC
Wind
  • 050° at 7 KTS
Visibility
10,000+ meters
Flight Rules
VFR
Cloud Levels
  • Scattered at 1,500' AGL
  • Broken at 5,000' AGL
  • Broken at 12,000' AGL
Temperature
20°C / 68°F
Dewpoint
18°C / 64°F
Humidity
88%
Altimeter
30.09" Hg
Pressure
1018.92 hPa
Previous

47 mins ago

RCTP 020313Z 05006KT 010V080 9999 FEW015 BKN050 BKN120 20/18 Q1019 NOSIG RMK A3010
Observed
Apr-2 @ 03:13 UTC
Wind
  • 050° at 6 KTS
Visibility
10,000+ meters
Flight Rules
VFR
Cloud Levels
  • Few at 1,500' AGL
  • Broken at 5,000' AGL
  • Broken at 12,000' AGL
Temperature
20°C / 68°F
Dewpoint
18°C / 64°F
Humidity
88%
Altimeter
30.09" Hg
Pressure
1018.92 hPa
Previous

1 hour ago

RCTP 020230Z 09009KT 050V120 7000 -SHRA FEW012 BKN015 BKN020 18/17 Q1020 NOSIG RMK A3012
Observed
Apr-2 @ 02:30 UTC
Wind
  • 090° at 9 KTS
Visibility
7001 meters
Flight Rules
MVFR
Conditions
Light Showers, Rain
Cloud Levels
  • Few at 1,200' AGL
  • Broken at 1,500' AGL
  • Broken at 2,000' AGL
Temperature
18°C / 64°F
Dewpoint
17°C / 63°F
Humidity
94%
Altimeter
30.12" Hg
Pressure
1019.92 hPa